Terminal Aerodrome Forecast
Issued by NWS

Home | Current Version | Previous Version | Text Only | Print | Product List | Glossary On
Versions: 1 2 3 4 5 6 7 8 9 10 11 12 13 14
000
FTUS43 KGRB 052330
TAFCWA
TAF
KCWA 052330Z 0600/0624 18008KT P6SM FEW050 BKN250
     FM060700 15004KT 6SM BR SCT035 BKN140 WS015/22035KT
      TEMPO 0608/0612 4SM BR
     FM061400 19012G18KT P6SM VCSH SCT025 OVC050 PROB30 0615/0618
      2SM TSRA BR SCT009 OVC025CB
     FM061800 19010G18KT 5SM -RA BR SCT012 BKN025
      TEMPO 0618/0622 2SM TSRA OVC020CB
      AMD LTD TO CLD VIS AND WND 0603/0611=

USA.gov is the U.S. government's official web portal to all federal, state and local government web resources and services.